sensor_id;sensor_type;location;lat;lon;timestamp;P1;durP1;ratioP1;P2;durP2;ratioP2
19664;SDS011;9980;51.020;7.772;2022-08-11T00:01:25;4.53;;;4.13;;
19664;SDS011;9980;51.020;7.772;2022-08-11T00:03:55;5.57;;;5.07;;
19664;SDS011;9980;51.020;7.772;2022-08-11T00:06:28;7.03;;;4.67;;
19664;SDS011;9980;51.020;7.772;2022-08-11T00:09:04;7.27;;;6.63;;
19664;SDS011;9980;51.020;7.772;2022-08-11T00:11:41;5.30;;;4.90;;
19664;SDS011;9980;51.020;7.772;2022-08-11T00:14:20;5.40;;;5.00;;
19664;SDS011;9980;51.020;7.772;2022-08-11T00:17:13;4.47;;;4.07;;
19664;SDS011;9980;51.020;7.772;2022-08-11T00:19:44;4.97;;;4.53;;
19664;SDS011;9980;51.020;7.772;2022-08-11T00:22:34;7.27;;;5.17;;
19664;SDS011;9980;51.020;7.772;2022-08-11T00:25:10;5.33;;;4.83;;
19664;SDS011;9980;51.020;7.772;2022-08-11T00:27:40;4.60;;;4.20;;
19664;SDS011;9980;51.020;7.772;2022-08-11T00:30:09;4.17;;;3.87;;
19664;SDS011;9980;51.020;7.772;2022-08-11T00:32:42;4.43;;;3.87;;
19664;SDS011;9980;51.020;7.772;2022-08-11T00:35:22;8.57;;;4.43;;
19664;SDS011;9980;51.020;7.772;2022-08-11T00:38:13;5.00;;;4.60;;
19664;SDS011;9980;51.020;7.772;2022-08-11T00:40:44;5.13;;;4.63;;
19664;SDS011;9980;51.020;7.772;2022-08-11T00:43:44;5.43;;;5.03;;
19664;SDS011;9980;51.020;7.772;2022-08-11T00:49:44;5.57;;;5.10;;
19664;SDS011;9980;51.020;7.772;2022-08-11T00:56:10;4.43;;;4.07;;
19664;SDS011;9980;51.020;7.772;2022-08-11T01:02:13;4.33;;;3.93;;
19664;SDS011;9980;51.020;7.772;2022-08-11T01:05:10;5.13;;;4.73;;
19664;SDS011;9980;51.020;7.772;2022-08-11T01:43:18;7.83;;;7.03;;
19664;SDS011;9980;51.020;7.772;2022-08-11T01:53:23;7.43;;;5.67;;
19664;SDS011;9980;51.020;7.772;2022-08-11T01:59:30;7.10;;;6.40;;
19664;SDS011;9980;51.020;7.772;2022-08-11T02:12:52;6.50;;;6.00;;
19664;SDS011;9980;51.020;7.772;2022-08-11T02:15:44;10.17;;;5.80;;
19664;SDS011;9980;51.020;7.772;2022-08-11T02:19:00;7.33;;;6.20;;
19664;SDS011;9980;51.020;7.772;2022-08-11T02:21:45;7.53;;;5.87;;
19664;SDS011;9980;51.020;7.772;2022-08-11T02:24:48;6.10;;;5.10;;
19664;SDS011;9980;51.020;7.772;2022-08-11T02:30:11;7.53;;;6.63;;
19664;SDS011;9980;51.020;7.772;2022-08-11T02:32:50;5.93;;;5.33;;
19664;SDS011;9980;51.020;7.772;2022-08-11T02:35:56;9.80;;;5.77;;
19664;SDS011;9980;51.020;7.772;2022-08-11T02:38:39;5.40;;;4.90;;
19664;SDS011;9980;51.020;7.772;2022-08-11T02:41:25;5.80;;;5.30;;
19664;SDS011;9980;51.020;7.772;2022-08-11T02:50:55;5.57;;;4.90;;
19664;SDS011;9980;51.020;7.772;2022-08-11T02:54:04;6.07;;;5.37;;
19664;SDS011;9980;51.020;7.772;2022-08-11T02:57:17;6.53;;;5.93;;
19664;SDS011;9980;51.020;7.772;2022-08-11T02:59:58;5.83;;;5.33;;
19664;SDS011;9980;51.020;7.772;2022-08-11T03:05:37;8.77;;;6.83;;
19664;SDS011;9980;51.020;7.772;2022-08-11T03:08:43;8.10;;;7.33;;
19664;SDS011;9980;51.020;7.772;2022-08-11T03:14:46;6.67;;;5.87;;
19664;SDS011;9980;51.020;7.772;2022-08-11T03:20:52;6.00;;;5.40;;
19664;SDS011;9980;51.020;7.772;2022-08-11T03:30:13;9.37;;;5.70;;
19664;SDS011;9980;51.020;7.772;2022-08-11T03:38:45;4.63;;;4.23;;
19664;SDS011;9980;51.020;7.772;2022-08-11T03:41:30;4.93;;;4.53;;
19664;SDS011;9980;51.020;7.772;2022-08-11T03:44:33;7.77;;;6.53;;
19664;SDS011;9980;51.020;7.772;2022-08-11T04:03:22;7.93;;;6.50;;
19664;SDS011;9980;51.020;7.772;2022-08-11T04:09:14;9.17;;;8.07;;
19664;SDS011;9980;51.020;7.772;2022-08-11T04:24:57;5.47;;;4.97;;
19664;SDS011;9980;51.020;7.772;2022-08-11T04:27:47;5.23;;;4.83;;
19664;SDS011;9980;51.020;7.772;2022-08-11T04:31:07;5.87;;;5.37;;
19664;SDS011;9980;51.020;7.772;2022-08-11T04:50:30;9.17;;;7.37;;
19664;SDS011;9980;51.020;7.772;2022-08-11T04:53:49;15.53;;;9.67;;
19664;SDS011;9980;51.020;7.772;2022-08-11T04:56:44;12.90;;;8.37;;
19664;SDS011;9980;51.020;7.772;2022-08-11T05:12:18;12.20;;;9.13;;
19664;SDS011;9980;51.020;7.772;2022-08-11T05:15:09;13.53;;;9.07;;
19664;SDS011;9980;51.020;7.772;2022-08-11T05:18:20;9.33;;;8.07;;
19664;SDS011;9980;51.020;7.772;2022-08-11T05:21:10;10.07;;;9.07;;
19664;SDS011;9980;51.020;7.772;2022-08-11T05:24:12;19.03;;;10.53;;
19664;SDS011;9980;51.020;7.772;2022-08-11T05:27:08;13.70;;;8.80;;
19664;SDS011;9980;51.020;7.772;2022-08-11T05:30:02;12.57;;;8.37;;
19664;SDS011;9980;51.020;7.772;2022-08-11T05:36:06;10.70;;;8.43;;
19664;SDS011;9980;51.020;7.772;2022-08-11T05:38:55;9.53;;;8.47;;
19664;SDS011;9980;51.020;7.772;2022-08-11T05:42:03;9.53;;;8.63;;
19664;SDS011;9980;51.020;7.772;2022-08-11T05:45:08;11.13;;;8.43;;
19664;SDS011;9980;51.020;7.772;2022-08-11T05:48:19;9.33;;;8.20;;
19664;SDS011;9980;51.020;7.772;2022-08-11T05:51:06;8.77;;;7.77;;
19664;SDS011;9980;51.020;7.772;2022-08-11T05:53:57;9.20;;;8.30;;
19664;SDS011;9980;51.020;7.772;2022-08-11T05:56:58;9.33;;;8.43;;
19664;SDS011;9980;51.020;7.772;2022-08-11T05:59:27;11.13;;;8.50;;
19664;SDS011;9980;51.020;7.772;2022-08-11T06:02:01;11.00;;;7.90;;
19664;SDS011;9980;51.020;7.772;2022-08-11T06:04:32;8.93;;;7.90;;
19664;SDS011;9980;51.020;7.772;2022-08-11T06:07:02;8.53;;;6.93;;
19664;SDS011;9980;51.020;7.772;2022-08-11T06:09:48;33.00;;;14.60;;
19664;SDS011;9980;51.020;7.772;2022-08-11T06:12:17;11.47;;;8.37;;
19664;SDS011;9980;51.020;7.772;2022-08-11T06:14:54;8.60;;;7.77;;
19664;SDS011;9980;51.020;7.772;2022-08-11T06:17:27;9.33;;;8.33;;
19664;SDS011;9980;51.020;7.772;2022-08-11T06:22:41;8.30;;;7.47;;
19664;SDS011;9980;51.020;7.772;2022-08-11T06:25:18;7.93;;;7.23;;
19664;SDS011;9980;51.020;7.772;2022-08-11T06:27:46;8.30;;;7.43;;
19664;SDS011;9980;51.020;7.772;2022-08-11T06:30:40;6.97;;;6.27;;
19664;SDS011;9980;51.020;7.772;2022-08-11T06:33:16;6.90;;;6.30;;
19664;SDS011;9980;51.020;7.772;2022-08-11T06:38:45;7.27;;;6.57;;
19664;SDS011;9980;51.020;7.772;2022-08-11T06:41:43;7.77;;;6.67;;
19664;SDS011;9980;51.020;7.772;2022-08-11T06:44:40;7.03;;;6.27;;
19664;SDS011;9980;51.020;7.772;2022-08-11T06:47:14;8.63;;;6.50;;
19664;SDS011;9980;51.020;7.772;2022-08-11T06:49:43;7.30;;;6.40;;
19664;SDS011;9980;51.020;7.772;2022-08-11T06:52:33;6.03;;;5.43;;
19664;SDS011;9980;51.020;7.772;2022-08-11T06:55:12;6.87;;;5.77;;
19664;SDS011;9980;51.020;7.772;2022-08-11T06:58:25;6.30;;;5.53;;
19664;SDS011;9980;51.020;7.772;2022-08-11T07:01:18;7.97;;;5.80;;
19664;SDS011;9980;51.020;7.772;2022-08-11T07:04:21;5.37;;;4.90;;
19664;SDS011;9980;51.020;7.772;2022-08-11T07:14:04;3.90;;;3.60;;
19664;SDS011;9980;51.020;7.772;2022-08-11T07:16:52;6.50;;;4.70;;
19664;SDS011;9980;51.020;7.772;2022-08-11T07:19:21;5.23;;;4.63;;
19664;SDS011;9980;51.020;7.772;2022-08-11T07:22:12;5.07;;;4.57;;
19664;SDS011;9980;51.020;7.772;2022-08-11T07:25:12;7.57;;;4.63;;
19664;SDS011;9980;51.020;7.772;2022-08-11T07:28:01;5.10;;;3.90;;
19664;SDS011;9980;51.020;7.772;2022-08-11T07:30:57;7.97;;;4.07;;
19664;SDS011;9980;51.020;7.772;2022-08-11T07:33:39;5.07;;;4.33;;
19664;SDS011;9980;51.020;7.772;2022-08-11T07:36:36;8.40;;;3.53;;
19664;SDS011;9980;51.020;7.772;2022-08-11T07:39:47;12.47;;;5.17;;
19664;SDS011;9980;51.020;7.772;2022-08-11T07:42:10;6.70;;;4.70;;
19664;SDS011;9980;51.020;7.772;2022-08-11T07:44:41;5.47;;;3.93;;
19664;SDS011;9980;51.020;7.772;2022-08-11T07:47:30;7.05;;;3.83;;
19664;SDS011;9980;51.020;7.772;2022-08-11T07:50:18;4.90;;;3.90;;
19664;SDS011;9980;51.020;7.772;2022-08-11T07:53:04;6.30;;;4.03;;
19664;SDS011;9980;51.020;7.772;2022-08-11T07:55:32;7.90;;;3.97;;
19664;SDS011;9980;51.020;7.772;2022-08-11T07:58:17;6.28;;;3.45;;
19664;SDS011;9980;51.020;7.772;2022-08-11T08:01:18;3.35;;;3.13;;
19664;SDS011;9980;51.020;7.772;2022-08-11T08:04:11;4.72;;;3.30;;
19664;SDS011;9980;51.020;7.772;2022-08-11T08:07:01;4.07;;;3.30;;
19664;SDS011;9980;51.020;7.772;2022-08-11T08:09:50;4.40;;;3.33;;
19664;SDS011;9980;51.020;7.772;2022-08-11T08:12:41;3.53;;;3.10;;
19664;SDS011;9980;51.020;7.772;2022-08-11T08:15:27;4.15;;;3.13;;
19664;SDS011;9980;51.020;7.772;2022-08-11T08:18:15;3.20;;;2.90;;
19664;SDS011;9980;51.020;7.772;2022-08-11T08:20:53;3.78;;;2.50;;
19664;SDS011;9980;51.020;7.772;2022-08-11T08:23:37;8.45;;;2.28;;
19664;SDS011;9980;51.020;7.772;2022-08-11T08:26:08;2.70;;;2.50;;
19664;SDS011;9980;51.020;7.772;2022-08-11T08:29:04;3.88;;;2.75;;
19664;SDS011;9980;51.020;7.772;2022-08-11T08:31:58;6.60;;;2.53;;
19664;SDS011;9980;51.020;7.772;2022-08-11T08:34:28;2.72;;;2.40;;
19664;SDS011;9980;51.020;7.772;2022-08-11T08:36:59;4.95;;;2.70;;
19664;SDS011;9980;51.020;7.772;2022-08-11T08:39:26;5.20;;;2.85;;
19664;SDS011;9980;51.020;7.772;2022-08-11T08:41:54;2.90;;;2.13;;
19664;SDS011;9980;51.020;7.772;2022-08-11T08:44:24;3.40;;;2.33;;
19664;SDS011;9980;51.020;7.772;2022-08-11T08:47:06;3.05;;;2.13;;
19664;SDS011;9980;51.020;7.772;2022-08-11T08:49:39;2.42;;;2.22;;
19664;SDS011;9980;51.020;7.772;2022-08-11T08:52:15;2.17;;;1.98;;
19664;SDS011;9980;51.020;7.772;2022-08-11T08:55:01;3.03;;;2.10;;
19664;SDS011;9980;51.020;7.772;2022-08-11T08:57:33;3.30;;;2.10;;
19664;SDS011;9980;51.020;7.772;2022-08-11T09:00:05;4.28;;;1.73;;
19664;SDS011;9980;51.020;7.772;2022-08-11T09:02:40;3.55;;;2.10;;
19664;SDS011;9980;51.020;7.772;2022-08-11T09:05:09;2.33;;;2.10;;
19664;SDS011;9980;51.020;7.772;2022-08-11T09:07:42;2.42;;;2.22;;
19664;SDS011;9980;51.020;7.772;2022-08-11T09:10:12;2.22;;;2.03;;
19664;SDS011;9980;51.020;7.772;2022-08-11T09:12:44;3.92;;;2.30;;
19664;SDS011;9980;51.020;7.772;2022-08-11T09:15:11;2.67;;;2.28;;
19664;SDS011;9980;51.020;7.772;2022-08-11T09:17:52;2.60;;;2.40;;
19664;SDS011;9980;51.020;7.772;2022-08-11T09:20:32;3.80;;;2.25;;
19664;SDS011;9980;51.020;7.772;2022-08-11T09:23:04;4.90;;;2.53;;
19664;SDS011;9980;51.020;7.772;2022-08-11T09:26:13;5.05;;;2.33;;
19664;SDS011;9980;51.020;7.772;2022-08-11T09:29:00;2.67;;;2.30;;
19664;SDS011;9980;51.020;7.772;2022-08-11T09:31:30;3.28;;;2.20;;
19664;SDS011;9980;51.020;7.772;2022-08-11T09:34:05;3.13;;;2.30;;
19664;SDS011;9980;51.020;7.772;2022-08-11T09:36:36;5.75;;;2.25;;
19664;SDS011;9980;51.020;7.772;2022-08-11T09:39:27;4.05;;;2.33;;
19664;SDS011;9980;51.020;7.772;2022-08-11T09:42:15;2.97;;;2.67;;
19664;SDS011;9980;51.020;7.772;2022-08-11T09:44:48;7.43;;;2.53;;
19664;SDS011;9980;51.020;7.772;2022-08-11T09:47:20;3.60;;;2.47;;
19664;SDS011;9980;51.020;7.772;2022-08-11T09:49:56;3.72;;;2.30;;
19664;SDS011;9980;51.020;7.772;2022-08-11T09:52:31;4.22;;;2.40;;
19664;SDS011;9980;51.020;7.772;2022-08-11T09:55:04;3.92;;;2.13;;
19664;SDS011;9980;51.020;7.772;2022-08-11T09:57:40;7.40;;;2.40;;
19664;SDS011;9980;51.020;7.772;2022-08-11T10:00:32;2.10;;;1.92;;
19664;SDS011;9980;51.020;7.772;2022-08-11T10:03:03;2.15;;;2.03;;
19664;SDS011;9980;51.020;7.772;2022-08-11T10:05:43;2.50;;;2.30;;
19664;SDS011;9980;51.020;7.772;2022-08-11T10:08:33;5.22;;;2.50;;
19664;SDS011;9980;51.020;7.772;2022-08-11T10:11:08;2.63;;;2.42;;
19664;SDS011;9980;51.020;7.772;2022-08-11T10:13:42;4.68;;;2.90;;
19664;SDS011;9980;51.020;7.772;2022-08-11T10:16:50;3.90;;;2.60;;
19664;SDS011;9980;51.020;7.772;2022-08-11T10:19:18;5.30;;;2.55;;
19664;SDS011;9980;51.020;7.772;2022-08-11T10:21:49;3.13;;;2.42;;
19664;SDS011;9980;51.020;7.772;2022-08-11T10:24:37;5.13;;;2.40;;
19664;SDS011;9980;51.020;7.772;2022-08-11T10:27:27;3.40;;;2.80;;
19664;SDS011;9980;51.020;7.772;2022-08-11T10:30:14;3.45;;;2.50;;
19664;SDS011;9980;51.020;7.772;2022-08-11T10:33:01;2.70;;;2.38;;
19664;SDS011;9980;51.020;7.772;2022-08-11T10:36:03;6.05;;;2.33;;
19664;SDS011;9980;51.020;7.772;2022-08-11T10:38:42;2.50;;;2.30;;
19664;SDS011;9980;51.020;7.772;2022-08-11T10:41:12;3.35;;;2.45;;
19664;SDS011;9980;51.020;7.772;2022-08-11T10:43:58;3.85;;;2.60;;
19664;SDS011;9980;51.020;7.772;2022-08-11T10:46:29;2.28;;;2.05;;
19664;SDS011;9980;51.020;7.772;2022-08-11T10:49:16;2.33;;;2.08;;
19664;SDS011;9980;51.020;7.772;2022-08-11T10:51:45;4.40;;;2.20;;
19664;SDS011;9980;51.020;7.772;2022-08-11T10:54:32;2.38;;;2.17;;
19664;SDS011;9980;51.020;7.772;2022-08-11T10:57:19;3.55;;;2.20;;
19664;SDS011;9980;51.020;7.772;2022-08-11T11:00:08;3.67;;;2.42;;
19664;SDS011;9980;51.020;7.772;2022-08-11T11:02:41;4.07;;;2.40;;
19664;SDS011;9980;51.020;7.772;2022-08-11T11:05:30;3.08;;;2.40;;
19664;SDS011;9980;51.020;7.772;2022-08-11T11:08:09;4.35;;;2.05;;
19664;SDS011;9980;51.020;7.772;2022-08-11T11:10:59;3.70;;;2.10;;
19664;SDS011;9980;51.020;7.772;2022-08-11T11:13:29;3.72;;;2.38;;
19664;SDS011;9980;51.020;7.772;2022-08-11T11:16:20;4.93;;;2.53;;
19664;SDS011;9980;51.020;7.772;2022-08-11T11:19:07;3.20;;;2.35;;
19664;SDS011;9980;51.020;7.772;2022-08-11T11:21:37;5.82;;;2.53;;
19664;SDS011;9980;51.020;7.772;2022-08-11T11:24:14;3.63;;;2.15;;
19664;SDS011;9980;51.020;7.772;2022-08-11T11:27:24;2.50;;;2.30;;
19664;SDS011;9980;51.020;7.772;2022-08-11T11:30:12;5.13;;;2.50;;
19664;SDS011;9980;51.020;7.772;2022-08-11T11:38:24;2.35;;;2.15;;
19664;SDS011;9980;51.020;7.772;2022-08-11T11:40:52;2.60;;;2.40;;
19664;SDS011;9980;51.020;7.772;2022-08-11T11:43:38;3.45;;;2.38;;
19664;SDS011;9980;51.020;7.772;2022-08-11T11:46:07;5.18;;;2.40;;
19664;SDS011;9980;51.020;7.772;2022-08-11T11:48:35;2.70;;;2.38;;
19664;SDS011;9980;51.020;7.772;2022-08-11T11:51:03;4.90;;;2.40;;
19664;SDS011;9980;51.020;7.772;2022-08-11T11:53:31;3.00;;;2.20;;
19664;SDS011;9980;51.020;7.772;2022-08-11T11:56:00;3.35;;;2.42;;
19664;SDS011;9980;51.020;7.772;2022-08-11T11:58:28;2.42;;;2.17;;
19664;SDS011;9980;51.020;7.772;2022-08-11T12:01:14;3.22;;;2.13;;
19664;SDS011;9980;51.020;7.772;2022-08-11T12:03:45;4.80;;;2.13;;
19664;SDS011;9980;51.020;7.772;2022-08-11T12:06:17;4.15;;;2.10;;
19664;SDS011;9980;51.020;7.772;2022-08-11T12:08:48;3.47;;;2.20;;
19664;SDS011;9980;51.020;7.772;2022-08-11T12:11:18;2.67;;;2.47;;
19664;SDS011;9980;51.020;7.772;2022-08-11T12:14:09;4.40;;;2.13;;
19664;SDS011;9980;51.020;7.772;2022-08-11T12:16:38;2.85;;;2.28;;
19664;SDS011;9980;51.020;7.772;2022-08-11T12:19:17;4.35;;;2.10;;
19664;SDS011;9980;51.020;7.772;2022-08-11T12:21:50;2.45;;;2.15;;
19664;SDS011;9980;51.020;7.772;2022-08-11T12:24:39;3.08;;;2.50;;
19664;SDS011;9980;51.020;7.772;2022-08-11T12:27:26;3.58;;;2.10;;
19664;SDS011;9980;51.020;7.772;2022-08-11T12:29:57;3.25;;;2.05;;
19664;SDS011;9980;51.020;7.772;2022-08-11T12:32:28;4.07;;;2.17;;
19664;SDS011;9980;51.020;7.772;2022-08-11T12:34:57;3.50;;;2.65;;
19664;SDS011;9980;51.020;7.772;2022-08-11T12:37:30;3.78;;;2.17;;
19664;SDS011;9980;51.020;7.772;2022-08-11T12:40:12;2.45;;;2.25;;
19664;SDS011;9980;51.020;7.772;2022-08-11T12:43:22;3.20;;;2.13;;
19664;SDS011;9980;51.020;7.772;2022-08-11T12:46:24;6.38;;;2.08;;
19664;SDS011;9980;51.020;7.772;2022-08-11T12:48:58;7.55;;;1.98;;
19664;SDS011;9980;51.020;7.772;2022-08-11T12:51:53;3.47;;;2.10;;
19664;SDS011;9980;51.020;7.772;2022-08-11T12:54:41;6.15;;;2.25;;
19664;SDS011;9980;51.020;7.772;2022-08-11T12:57:15;5.30;;;2.20;;
19664;SDS011;9980;51.020;7.772;2022-08-11T13:00:23;3.78;;;1.80;;
19664;SDS011;9980;51.020;7.772;2022-08-11T13:03:11;5.00;;;2.75;;
19664;SDS011;9980;51.020;7.772;2022-08-11T13:06:01;3.17;;;2.30;;
19664;SDS011;9980;51.020;7.772;2022-08-11T13:08:32;2.35;;;2.10;;
19664;SDS011;9980;51.020;7.772;2022-08-11T13:11:03;2.03;;;1.85;;
19664;SDS011;9980;51.020;7.772;2022-08-11T13:14:10;2.42;;;1.60;;
19664;SDS011;9980;51.020;7.772;2022-08-11T13:16:40;2.58;;;2.33;;
19664;SDS011;9980;51.020;7.772;2022-08-11T13:19:29;4.50;;;2.20;;
19664;SDS011;9980;51.020;7.772;2022-08-11T13:21:59;5.47;;;2.15;;
19664;SDS011;9980;51.020;7.772;2022-08-11T13:24:32;3.85;;;2.28;;
19664;SDS011;9980;51.020;7.772;2022-08-11T13:27:04;2.70;;;2.15;;
19664;SDS011;9980;51.020;7.772;2022-08-11T13:29:32;2.47;;;2.15;;
19664;SDS011;9980;51.020;7.772;2022-08-11T13:32:01;3.90;;;2.30;;
19664;SDS011;9980;51.020;7.772;2022-08-11T13:34:29;2.90;;;2.20;;
19664;SDS011;9980;51.020;7.772;2022-08-11T13:37:01;2.45;;;2.25;;
19664;SDS011;9980;51.020;7.772;2022-08-11T13:39:31;6.45;;;2.50;;
19664;SDS011;9980;51.020;7.772;2022-08-11T13:42:01;5.55;;;2.20;;
19664;SDS011;9980;51.020;7.772;2022-08-11T13:44:32;3.30;;;2.30;;
19664;SDS011;9980;51.020;7.772;2022-08-11T13:47:03;5.25;;;2.08;;
19664;SDS011;9980;51.020;7.772;2022-08-11T13:49:34;2.08;;;1.98;;
19664;SDS011;9980;51.020;7.772;2022-08-11T13:52:07;6.07;;;2.33;;
19664;SDS011;9980;51.020;7.772;2022-08-11T13:54:38;2.92;;;2.20;;
19664;SDS011;9980;51.020;7.772;2022-08-11T13:57:08;8.15;;;2.20;;
19664;SDS011;9980;51.020;7.772;2022-08-11T14:00:00;2.40;;;2.20;;
19664;SDS011;9980;51.020;7.772;2022-08-11T14:02:49;2.08;;;1.88;;
19664;SDS011;9980;51.020;7.772;2022-08-11T14:05:21;3.63;;;2.25;;
19664;SDS011;9980;51.020;7.772;2022-08-11T14:07:58;2.72;;;2.22;;
19664;SDS011;9980;51.020;7.772;2022-08-11T14:10:54;2.42;;;2.10;;
19664;SDS011;9980;51.020;7.772;2022-08-11T14:14:06;2.53;;;2.30;;
19664;SDS011;9980;51.020;7.772;2022-08-11T14:16:40;3.78;;;2.20;;
19664;SDS011;9980;51.020;7.772;2022-08-11T14:19:11;3.53;;;2.40;;
19664;SDS011;9980;51.020;7.772;2022-08-11T14:21:41;3.28;;;2.35;;
19664;SDS011;9980;51.020;7.772;2022-08-11T14:24:37;3.25;;;2.75;;
19664;SDS011;9980;51.020;7.772;2022-08-11T14:27:07;2.40;;;2.20;;
19664;SDS011;9980;51.020;7.772;2022-08-11T14:29:57;4.13;;;2.15;;
19664;SDS011;9980;51.020;7.772;2022-08-11T14:32:25;2.83;;;2.47;;
19664;SDS011;9980;51.020;7.772;2022-08-11T14:34:53;3.20;;;2.03;;
19664;SDS011;9980;51.020;7.772;2022-08-11T14:37:21;3.45;;;2.17;;
19664;SDS011;9980;51.020;7.772;2022-08-11T14:39:52;5.15;;;2.25;;
19664;SDS011;9980;51.020;7.772;2022-08-11T14:42:29;3.88;;;2.25;;
19664;SDS011;9980;51.020;7.772;2022-08-11T14:45:22;2.42;;;2.00;;
19664;SDS011;9980;51.020;7.772;2022-08-11T14:48:20;5.32;;;2.50;;
19664;SDS011;9980;51.020;7.772;2022-08-11T14:50:49;4.03;;;2.17;;
19664;SDS011;9980;51.020;7.772;2022-08-11T14:53:16;5.05;;;2.45;;
19664;SDS011;9980;51.020;7.772;2022-08-11T14:55:48;2.90;;;2.45;;
19664;SDS011;9980;51.020;7.772;2022-08-11T14:58:37;4.15;;;2.50;;
19664;SDS011;9980;51.020;7.772;2022-08-11T15:01:05;7.20;;;2.47;;
19664;SDS011;9980;51.020;7.772;2022-08-11T15:03:52;4.85;;;2.70;;
19664;SDS011;9980;51.020;7.772;2022-08-11T15:06:41;2.88;;;2.35;;
19664;SDS011;9980;51.020;7.772;2022-08-11T15:09:08;3.20;;;2.58;;
19664;SDS011;9980;51.020;7.772;2022-08-11T15:11:35;3.90;;;2.35;;
19664;SDS011;9980;51.020;7.772;2022-08-11T15:14:22;2.35;;;2.10;;
19664;SDS011;9980;51.020;7.772;2022-08-11T15:17:09;2.90;;;2.10;;
19664;SDS011;9980;51.020;7.772;2022-08-11T15:19:39;2.88;;;2.30;;
19664;SDS011;9980;51.020;7.772;2022-08-11T15:22:27;2.35;;;1.90;;
19664;SDS011;9980;51.020;7.772;2022-08-11T15:25:13;2.50;;;2.30;;
19664;SDS011;9980;51.020;7.772;2022-08-11T15:27:41;3.63;;;2.25;;
19664;SDS011;9980;51.020;7.772;2022-08-11T15:30:29;5.32;;;2.90;;
19664;SDS011;9980;51.020;7.772;2022-08-11T15:33:17;3.75;;;2.92;;
19664;SDS011;9980;51.020;7.772;2022-08-11T15:36:06;3.95;;;2.45;;
19664;SDS011;9980;51.020;7.772;2022-08-11T15:38:57;2.88;;;2.47;;
19664;SDS011;9980;51.020;7.772;2022-08-11T15:44:41;2.58;;;2.38;;
19664;SDS011;9980;51.020;7.772;2022-08-11T15:47:41;2.47;;;2.28;;
19664;SDS011;9980;51.020;7.772;2022-08-11T15:50:31;6.07;;;2.80;;
19664;SDS011;9980;51.020;7.772;2022-08-11T15:53:06;3.33;;;2.70;;
19664;SDS011;9980;51.020;7.772;2022-08-11T15:55:41;2.58;;;2.20;;
19664;SDS011;9980;51.020;7.772;2022-08-11T15:58:10;2.33;;;2.13;;
19664;SDS011;9980;51.020;7.772;2022-08-11T16:00:57;2.33;;;2.13;;
19664;SDS011;9980;51.020;7.772;2022-08-11T16:04:29;3.53;;;2.65;;
19664;SDS011;9980;51.020;7.772;2022-08-11T16:09:41;4.95;;;2.40;;
19664;SDS011;9980;51.020;7.772;2022-08-11T16:12:25;3.58;;;2.10;;
19664;SDS011;9980;51.020;7.772;2022-08-11T16:15:02;2.35;;;2.15;;
19664;SDS011;9980;51.020;7.772;2022-08-11T16:17:55;3.92;;;2.75;;
19664;SDS011;9980;51.020;7.772;2022-08-11T16:20:28;3.17;;;2.42;;
19664;SDS011;9980;51.020;7.772;2022-08-11T16:22:59;4.10;;;2.03;;
19664;SDS011;9980;51.020;7.772;2022-08-11T16:25:34;2.63;;;2.38;;
19664;SDS011;9980;51.020;7.772;2022-08-11T16:28:22;4.57;;;2.88;;
19664;SDS011;9980;51.020;7.772;2022-08-11T16:30:50;6.35;;;2.65;;
19664;SDS011;9980;51.020;7.772;2022-08-11T16:33:21;7.55;;;2.63;;
19664;SDS011;9980;51.020;7.772;2022-08-11T16:36:10;5.00;;;2.70;;
19664;SDS011;9980;51.020;7.772;2022-08-11T16:39:01;5.03;;;3.10;;
19664;SDS011;9980;51.020;7.772;2022-08-11T16:41:31;3.58;;;2.65;;
19664;SDS011;9980;51.020;7.772;2022-08-11T16:44:20;3.95;;;2.70;;
19664;SDS011;9980;51.020;7.772;2022-08-11T16:47:09;3.67;;;2.55;;
19664;SDS011;9980;51.020;7.772;2022-08-11T16:49:45;2.97;;;2.67;;
19664;SDS011;9980;51.020;7.772;2022-08-11T16:52:20;4.03;;;2.58;;
19664;SDS011;9980;51.020;7.772;2022-08-11T16:54:49;4.43;;;2.60;;
19664;SDS011;9980;51.020;7.772;2022-08-11T16:57:22;5.82;;;2.78;;
19664;SDS011;9980;51.020;7.772;2022-08-11T17:00:12;4.75;;;2.78;;
19664;SDS011;9980;51.020;7.772;2022-08-11T17:02:43;4.68;;;2.88;;
19664;SDS011;9980;51.020;7.772;2022-08-11T17:05:42;6.72;;;2.50;;
19664;SDS011;9980;51.020;7.772;2022-08-11T17:08:36;2.97;;;2.78;;
19664;SDS011;9980;51.020;7.772;2022-08-11T17:11:43;4.00;;;3.00;;
19664;SDS011;9980;51.020;7.772;2022-08-11T17:14:39;3.05;;;2.78;;
19664;SDS011;9980;51.020;7.772;2022-08-11T17:17:14;3.40;;;2.80;;
19664;SDS011;9980;51.020;7.772;2022-08-11T17:19:50;5.63;;;3.05;;
19664;SDS011;9980;51.020;7.772;2022-08-11T17:22:43;3.28;;;2.88;;
19664;SDS011;9980;51.020;7.772;2022-08-11T17:25:29;3.38;;;2.97;;
19664;SDS011;9980;51.020;7.772;2022-08-11T17:28:19;7.70;;;3.22;;
19664;SDS011;9980;51.020;7.772;2022-08-11T17:30:51;4.07;;;3.10;;
19664;SDS011;9980;51.020;7.772;2022-08-11T17:33:47;3.20;;;2.50;;
19664;SDS011;9980;51.020;7.772;2022-08-11T17:36:35;4.72;;;3.00;;
19664;SDS011;9980;51.020;7.772;2022-08-11T17:39:11;5.80;;;3.05;;
19664;SDS011;9980;51.020;7.772;2022-08-11T17:41:39;3.47;;;3.17;;
19664;SDS011;9980;51.020;7.772;2022-08-11T17:44:27;3.90;;;2.90;;
19664;SDS011;9980;51.020;7.772;2022-08-11T17:47:15;2.70;;;2.45;;
19664;SDS011;9980;51.020;7.772;2022-08-11T17:50:04;5.03;;;2.92;;
19664;SDS011;9980;51.020;7.772;2022-08-11T17:52:42;4.35;;;2.70;;
19664;SDS011;9980;51.020;7.772;2022-08-11T17:55:31;3.45;;;2.67;;
19664;SDS011;9980;51.020;7.772;2022-08-11T17:58:23;7.53;;;3.25;;
19664;SDS011;9980;51.020;7.772;2022-08-11T18:01:10;3.10;;;2.80;;
19664;SDS011;9980;51.020;7.772;2022-08-11T18:03:39;4.65;;;2.70;;
19664;SDS011;9980;51.020;7.772;2022-08-11T18:06:23;2.88;;;2.60;;
19664;SDS011;9980;51.020;7.772;2022-08-11T18:09:01;4.85;;;2.80;;
19664;SDS011;9980;51.020;7.772;2022-08-11T18:11:53;5.28;;;3.00;;
19664;SDS011;9980;51.020;7.772;2022-08-11T18:14:46;3.80;;;2.60;;
19664;SDS011;9980;51.020;7.772;2022-08-11T18:17:35;3.22;;;2.40;;
19664;SDS011;9980;51.020;7.772;2022-08-11T18:20:22;4.45;;;3.05;;
19664;SDS011;9980;51.020;7.772;2022-08-11T18:23:11;3.72;;;3.30;;
19664;SDS011;9980;51.020;7.772;2022-08-11T18:26:11;2.60;;;2.40;;
19664;SDS011;9980;51.020;7.772;2022-08-11T18:29:03;2.75;;;2.47;;
19664;SDS011;9980;51.020;7.772;2022-08-11T18:31:52;3.53;;;2.40;;
19664;SDS011;9980;51.020;7.772;2022-08-11T18:34:48;2.65;;;2.45;;
19664;SDS011;9980;51.020;7.772;2022-08-11T18:37:37;2.88;;;2.40;;
19664;SDS011;9980;51.020;7.772;2022-08-11T18:40:31;3.08;;;2.60;;
19664;SDS011;9980;51.020;7.772;2022-08-11T18:43:19;6.57;;;2.80;;
19664;SDS011;9980;51.020;7.772;2022-08-11T18:46:10;9.63;;;2.92;;
19664;SDS011;9980;51.020;7.772;2022-08-11T18:49:04;3.65;;;2.40;;
19664;SDS011;9980;51.020;7.772;2022-08-11T18:52:16;3.75;;;2.60;;
19664;SDS011;9980;51.020;7.772;2022-08-11T18:55:06;3.17;;;2.67;;
19664;SDS011;9980;51.020;7.772;2022-08-11T18:58:02;3.40;;;2.72;;
19664;SDS011;9980;51.020;7.772;2022-08-11T19:00:55;5.43;;;3.13;;
19664;SDS011;9980;51.020;7.772;2022-08-11T19:03:45;3.22;;;2.90;;
19664;SDS011;9980;51.020;7.772;2022-08-11T19:06:42;3.38;;;2.80;;
19664;SDS011;9980;51.020;7.772;2022-08-11T19:09:31;2.47;;;2.33;;
19664;SDS011;9980;51.020;7.772;2022-08-11T19:12:23;2.67;;;2.47;;
19664;SDS011;9980;51.020;7.772;2022-08-11T19:15:13;4.88;;;2.83;;
19664;SDS011;9980;51.020;7.772;2022-08-11T19:18:01;6.60;;;4.63;;
19664;SDS011;9980;51.020;7.772;2022-08-11T19:20:49;5.47;;;3.65;;
19664;SDS011;9980;51.020;7.772;2022-08-11T19:23:42;4.15;;;3.75;;
19664;SDS011;9980;51.020;7.772;2022-08-11T19:26:34;5.70;;;5.07;;
19664;SDS011;9980;51.020;7.772;2022-08-11T19:29:21;5.65;;;5.15;;
19664;SDS011;9980;51.020;7.772;2022-08-11T19:32:30;5.65;;;5.15;;
19664;SDS011;9980;51.020;7.772;2022-08-11T19:35:16;8.18;;;5.75;;
19664;SDS011;9980;51.020;7.772;2022-08-11T19:38:04;6.68;;;6.18;;
19664;SDS011;9980;51.020;7.772;2022-08-11T19:40:51;8.05;;;7.32;;
19664;SDS011;9980;51.020;7.772;2022-08-11T19:43:43;6.25;;;5.63;;
19664;SDS011;9980;51.020;7.772;2022-08-11T19:46:30;8.53;;;7.73;;